createdAt,value
2023-04-16T00:00:55.693Z,96442.19
2023-04-16T00:03:22.809Z,96443.09
2023-04-16T00:05:49.494Z,96450.63
2023-04-16T00:08:15.902Z,96450.91
2023-04-16T00:10:42.323Z,96458.19
2023-04-16T00:13:08.685Z,96466.63
2023-04-16T00:15:35.039Z,96454.91
2023-04-16T00:18:01.474Z,96455.41
2023-04-16T00:20:27.868Z,96456.84
2023-04-16T00:22:54.381Z,96455.09
2023-04-16T00:25:20.820Z,96458.22
2023-04-16T00:27:47.175Z,96454.63
2023-04-16T00:30:13.564Z,96453.03
2023-04-16T00:32:39.853Z,96455.22
2023-04-16T00:35:06.489Z,96452.72
2023-04-16T00:37:32.803Z,96457.56
2023-04-16T00:39:59.096Z,96453.13
2023-04-16T00:42:25.595Z,96447.06
2023-04-16T00:44:52.511Z,96463.47
2023-04-16T00:47:19.950Z,96453.72
2023-04-16T00:49:46.449Z,96457.84
2023-04-16T00:52:13.005Z,96465.03
2023-04-16T00:54:39.764Z,96459.38
2023-04-16T00:57:06.204Z,96462.69
2023-04-16T00:59:32.527Z,96464.88
2023-04-16T01:01:58.907Z,96464.88
2023-04-16T01:04:26.133Z,96454.53
2023-04-16T01:06:53.852Z,96456.25
2023-04-16T01:09:20.305Z,96456.25
2023-04-16T01:11:46.587Z,96466.50
2023-04-16T01:14:12.925Z,96459.94
2023-04-16T01:16:39.325Z,96458.81
2023-04-16T01:19:05.707Z,96460.84
2023-04-16T01:21:32.503Z,96460.44
2023-04-16T01:24:02.107Z,96465.25
2023-04-16T01:26:28.433Z,96462.06
2023-04-16T01:28:54.864Z,96458.44
2023-04-16T01:31:21.217Z,96466.81
2023-04-16T01:33:47.647Z,96472.13
2023-04-16T01:36:14.048Z,96469.59
2023-04-16T01:38:40.388Z,96472.13
2023-04-16T01:41:06.681Z,96472.88
2023-04-16T01:43:32.988Z,96474.41
2023-04-16T01:46:31.887Z,96476.13
2023-04-16T01:49:05.080Z,96477.94
2023-04-16T01:51:32.290Z,96481.44
2023-04-16T01:53:58.584Z,96481.25
2023-04-16T01:56:25.482Z,96486.72
2023-04-16T01:58:52.594Z,96483.69
2023-04-16T02:01:19.272Z,96479.16
2023-04-16T02:03:46.249Z,96478.75
2023-04-16T02:06:12.785Z,96476.66
2023-04-16T02:08:39.316Z,96471.53
2023-04-16T02:11:05.851Z,96483.78
2023-04-16T02:13:32.329Z,96483.44
2023-04-16T02:15:58.710Z,96480.13
2023-04-16T02:18:25.284Z,96482.25
2023-04-16T02:20:52.377Z,96488.78
2023-04-16T02:23:18.671Z,96487.47
2023-04-16T02:25:46.039Z,96489.75
2023-04-16T02:28:13.432Z,96483.56
2023-04-16T02:30:40.717Z,96475.84
2023-04-16T02:33:07.959Z,96488.47
2023-04-16T02:35:34.834Z,96484.56
2023-04-16T02:38:01.796Z,96490.84
2023-04-16T02:40:28.461Z,96484.63
2023-04-16T02:42:54.852Z,96479.53
2023-04-16T02:45:21.374Z,96482.97
2023-04-16T02:47:49.393Z,96490.50
2023-04-16T02:50:16.013Z,96491.41
2023-04-16T02:52:42.443Z,96483.97
2023-04-16T02:55:09.268Z,96484.88
2023-04-16T02:57:35.688Z,96487.63
2023-04-16T03:00:02.031Z,96486.19
2023-04-16T03:02:28.756Z,96493.03
2023-04-16T03:04:55.573Z,96492.19
2023-04-16T03:07:22.523Z,96492.00
2023-04-16T03:09:48.915Z,96490.78
2023-04-16T03:12:15.295Z,96497.63
2023-04-16T03:14:41.697Z,96501.66
2023-04-16T03:17:08.014Z,96494.13
2023-04-16T03:19:34.436Z,96502.28
2023-04-16T03:22:00.780Z,96496.28
2023-04-16T03:24:28.143Z,96503.09
2023-04-16T03:26:54.492Z,96502.59
2023-04-16T03:29:20.796Z,96509.22
2023-04-16T03:31:47.104Z,96502.16
2023-04-16T03:34:13.461Z,96503.19
2023-04-16T03:36:39.754Z,96511.44
2023-04-16T03:39:06.187Z,96506.28
2023-04-16T03:41:33.047Z,96509.28
2023-04-16T03:43:59.389Z,96509.97
2023-04-16T03:46:25.856Z,96510.97
2023-04-16T03:48:52.555Z,96518.53
2023-04-16T03:51:18.869Z,96517.34
2023-04-16T03:53:45.285Z,96515.19
2023-04-16T03:56:11.631Z,96517.34
2023-04-16T03:58:37.950Z,96524.44
2023-04-16T04:01:04.420Z,96526.38
2023-04-16T04:03:31.018Z,96524.88
2023-04-16T04:05:57.509Z,96527.09
2023-04-16T04:08:23.904Z,96525.25
2023-04-16T04:10:51.135Z,96524.72
2023-04-16T04:13:17.432Z,96523.91
2023-04-16T04:15:44.121Z,96528.50
2023-04-16T04:18:10.645Z,96529.06
2023-04-16T04:20:41.142Z,96537.88
2023-04-16T04:23:07.505Z,96534.72
2023-04-16T04:25:33.894Z,96536.97
2023-04-16T04:28:00.267Z,96531.16
2023-04-16T04:30:26.872Z,96535.00
2023-04-16T04:32:53.715Z,96535.41
2023-04-16T04:35:20.376Z,96536.47
2023-04-16T04:37:46.788Z,96538.81
2023-04-16T04:40:13.116Z,96537.34
2023-04-16T04:42:39.502Z,96545.16
2023-04-16T04:45:06.154Z,96537.00
2023-04-16T04:47:32.484Z,96545.06
2023-04-16T04:49:59.179Z,96543.59
2023-04-16T04:52:25.804Z,96539.34
2023-04-16T04:54:53.378Z,96555.09
2023-04-16T04:57:19.763Z,96551.31
2023-04-16T04:59:46.099Z,96552.50
2023-04-16T05:02:12.483Z,96560.69
2023-04-16T05:04:39.036Z,96558.84
2023-04-16T05:07:06.599Z,96563.44
2023-04-16T05:09:32.988Z,96561.38
2023-04-16T05:11:59.415Z,96563.91
2023-04-16T05:14:25.840Z,96565.59
2023-04-16T05:16:52.563Z,96569.38
2023-04-16T05:19:18.912Z,96579.97
2023-04-16T05:21:45.228Z,96567.69
2023-04-16T05:24:13.054Z,96575.03
2023-04-16T05:26:41.148Z,96572.06
2023-04-16T05:29:07.477Z,96569.31
2023-04-16T05:31:34.026Z,96574.19
2023-04-16T05:34:00.357Z,96569.16
2023-04-16T05:36:26.678Z,96575.06
2023-04-16T05:38:54.058Z,96577.22
2023-04-16T05:41:20.371Z,96573.50
2023-04-16T05:43:46.704Z,96579.00
2023-04-16T05:46:13.179Z,96573.22
2023-04-16T05:48:39.613Z,96570.28
2023-04-16T05:51:06.133Z,96581.59
2023-04-16T05:53:32.507Z,96585.13
2023-04-16T05:55:58.827Z,96588.16
2023-04-16T05:58:25.301Z,96584.38
2023-04-16T06:00:52.518Z,96588.25
2023-04-16T06:03:18.922Z,96595.88
2023-04-16T06:05:45.645Z,96599.66
2023-04-16T06:08:12.047Z,96591.72
2023-04-16T06:10:38.407Z,96593.63
2023-04-16T06:13:04.986Z,96599.34
2023-04-16T06:15:31.914Z,96603.22
2023-04-16T06:18:00.706Z,96600.69
2023-04-16T06:20:27.457Z,96601.41
2023-04-16T06:22:53.826Z,96600.16
2023-04-16T06:25:20.263Z,96597.56
2023-04-16T06:27:46.683Z,96598.47
2023-04-16T06:30:13.739Z,96602.00
2023-04-16T06:32:40.128Z,96602.91
2023-04-16T06:35:08.213Z,96596.78
2023-04-16T06:37:35.087Z,96601.78
2023-04-16T06:40:01.594Z,96603.41
2023-04-16T06:42:27.949Z,96605.63
2023-04-16T06:44:54.258Z,96603.28
2023-04-16T06:47:21.215Z,96596.75
2023-04-16T06:49:48.768Z,96595.56
2023-04-16T06:52:15.358Z,96592.47
2023-04-16T06:54:41.731Z,96608.91
2023-04-16T06:57:08.071Z,96604.63
2023-04-16T06:59:34.412Z,96614.34
2023-04-16T07:02:01.288Z,96602.47
2023-04-16T07:04:27.767Z,96613.25
2023-04-16T07:06:54.340Z,96608.16
2023-04-16T07:09:20.656Z,96617.88
2023-04-16T07:11:47.048Z,96619.78
2023-04-16T07:14:13.399Z,96630.63
2023-04-16T07:16:40.653Z,96626.84
2023-04-16T07:19:07.159Z,96623.66
2023-04-16T07:21:33.556Z,96619.53
2023-04-16T07:23:59.894Z,96619.69
2023-04-16T07:26:26.464Z,96628.94
2023-04-16T07:28:53.492Z,96624.00
2023-04-16T07:31:19.955Z,96628.47
2023-04-16T07:33:46.404Z,96616.88
2023-04-16T07:36:12.809Z,96630.75
2023-04-16T07:38:39.176Z,96631.47
2023-04-16T07:41:05.749Z,96638.91
2023-04-16T07:43:32.070Z,96635.41
2023-04-16T07:45:58.448Z,96638.53
2023-04-16T07:48:24.960Z,96645.47
2023-04-16T07:50:52.673Z,96642.31
2023-04-16T07:53:19.026Z,96646.09
2023-04-16T07:55:45.571Z,96642.56
2023-04-16T07:58:11.884Z,96649.38
2023-04-16T08:00:39.455Z,96653.00
2023-04-16T08:03:06.402Z,96657.75
2023-04-16T08:05:32.871Z,96657.59
2023-04-16T08:07:59.270Z,96663.53
2023-04-16T08:10:25.632Z,96662.28
2023-04-16T08:12:54.370Z,96667.31
2023-04-16T08:15:21.023Z,96666.13
2023-04-16T08:17:47.413Z,96672.03
2023-04-16T08:20:16.962Z,96671.59
2023-04-16T08:22:45.753Z,96681.03
2023-04-16T08:25:12.241Z,96681.13
2023-04-16T08:27:38.632Z,96681.47
2023-04-16T08:30:05.515Z,96680.91
2023-04-16T08:32:32.002Z,96679.91
2023-04-16T08:34:58.335Z,96682.06
2023-04-16T08:37:25.178Z,96681.84
2023-04-16T08:39:51.588Z,96682.34
2023-04-16T08:42:29.913Z,96688.16
2023-04-16T08:45:03.111Z,96686.19
2023-04-16T08:47:31.583Z,96694.50
2023-04-16T08:49:58.882Z,96692.34
2023-04-16T08:52:26.030Z,96689.41
2023-04-16T08:55:04.547Z,96695.47
2023-04-16T08:57:34.764Z,96691.44
2023-04-16T09:00:01.406Z,96695.75
2023-04-16T09:02:28.501Z,96699.97
2023-04-16T09:04:56.449Z,96696.69
2023-04-16T09:07:24.097Z,96690.22
2023-04-16T09:09:53.212Z,96701.97
2023-04-16T09:12:20.018Z,96708.09
2023-04-16T09:14:49.708Z,96702.50
2023-04-16T09:17:16.796Z,96703.00
2023-04-16T09:19:43.540Z,96702.31
2023-04-16T09:22:09.937Z,96699.19
2023-04-16T09:24:38.393Z,96702.63
2023-04-16T09:27:05.075Z,96703.44
2023-04-16T09:29:37.738Z,96707.72
2023-04-16T09:32:05.824Z,96700.66
2023-04-16T09:34:32.999Z,96706.53
2023-04-16T09:37:26.496Z,96697.03
2023-04-16T09:39:55.091Z,96711.97
2023-04-16T09:42:23.838Z,96704.19
2023-04-16T09:44:50.483Z,96701.09
2023-04-16T09:47:17.055Z,96698.25
2023-04-16T09:49:43.952Z,96700.69
2023-04-16T09:52:17.178Z,96712.66
2023-04-16T09:54:50.699Z,96707.94
2023-04-16T09:57:24.526Z,96710.69
2023-04-16T09:59:57.286Z,96708.75
2023-04-16T10:02:27.794Z,96709.59
2023-04-16T10:04:54.823Z,96712.50
2023-04-16T10:07:22.577Z,96714.44
2023-04-16T10:09:49.687Z,96701.41
2023-04-16T10:12:16.222Z,96707.47
2023-04-16T10:14:42.713Z,96705.53
2023-04-16T10:17:09.552Z,96708.16
2023-04-16T10:19:36.358Z,96708.06
2023-04-16T10:22:03.245Z,96711.00
2023-04-16T10:24:30.246Z,96707.34
2023-04-16T10:26:57.076Z,96706.03
2023-04-16T10:29:25.346Z,96703.09
2023-04-16T10:31:52.487Z,96708.97
2023-04-16T10:34:19.592Z,96708.34
2023-04-16T10:36:48.281Z,96717.03
2023-04-16T10:39:18.089Z,96702.63
2023-04-16T10:41:44.602Z,96709.97
2023-04-16T10:44:11.073Z,96713.13
2023-04-16T10:46:41.494Z,96704.13
2023-04-16T10:49:15.742Z,96708.69
2023-04-16T10:51:42.787Z,96710.59
2023-04-16T10:54:09.255Z,96711.94
2023-04-16T10:56:36.585Z,96711.50
2023-04-16T10:59:10.918Z,96706.84
2023-04-16T11:01:40.978Z,96707.06
2023-04-16T11:04:19.732Z,96704.13
2023-04-16T11:07:05.109Z,96718.44
2023-04-16T11:09:52.530Z,96706.94
2023-04-16T11:12:19.962Z,96705.72
2023-04-16T11:14:47.698Z,96712.00
2023-04-16T11:17:14.087Z,96704.41
2023-04-16T11:19:42.029Z,96707.56
2023-04-16T11:22:08.374Z,96712.19
2023-04-16T11:24:34.744Z,96706.75
2023-04-16T11:27:03.029Z,96704.53
2023-04-16T11:29:29.349Z,96710.09
2023-04-16T11:31:55.791Z,96715.44
2023-04-16T11:34:22.441Z,96706.84
2023-04-16T11:36:50.084Z,96709.59
2023-04-16T11:39:16.793Z,96706.66
2023-04-16T11:41:49.454Z,96712.19
2023-04-16T11:44:22.749Z,96710.78
2023-04-16T11:46:49.854Z,96711.19
2023-04-16T11:49:17.563Z,96715.66
2023-04-16T11:51:44.832Z,96716.56
2023-04-16T11:54:18.390Z,96714.44
2023-04-16T11:56:46.623Z,96706.03
2023-04-16T11:59:14.428Z,96704.13
2023-04-16T12:01:41.855Z,96713.81
2023-04-16T12:04:08.935Z,96714.03
2023-04-16T12:06:35.656Z,96713.41
2023-04-16T12:09:22.865Z,96709.88
2023-04-16T12:11:49.578Z,96712.91
2023-04-16T12:14:15.940Z,96715.25
2023-04-16T12:16:42.334Z,96725.84
2023-04-16T12:19:11.292Z,96714.03
2023-04-16T12:21:41.306Z,96712.53
2023-04-16T12:24:08.486Z,96719.28
2023-04-16T12:26:42.415Z,96715.84
2023-04-16T12:29:19.433Z,96716.84
2023-04-16T12:31:46.371Z,96717.75
2023-04-16T12:34:15.015Z,96714.81
2023-04-16T12:36:42.061Z,96720.69
2023-04-16T12:39:09.777Z,96714.13
2023-04-16T12:41:37.272Z,96719.38
2023-04-16T12:44:04.415Z,96722.91
2023-04-16T12:46:30.829Z,96715.13
2023-04-16T12:48:57.643Z,96722.00
2023-04-16T12:51:24.452Z,96715.44
2023-04-16T12:53:50.986Z,96718.06
2023-04-16T12:56:17.323Z,96720.09
2023-04-16T12:58:43.647Z,96717.25
2023-04-16T13:01:09.954Z,96719.88
2023-04-16T13:03:37.214Z,96715.44
2023-04-16T13:06:03.885Z,96710.81
2023-04-16T13:08:30.643Z,96715.25
2023-04-16T13:10:56.939Z,96716.38
2023-04-16T13:13:24.024Z,96711.22
2023-04-16T13:15:50.895Z,96715.34
2023-04-16T13:18:19.308Z,96713.31
2023-04-16T13:20:45.759Z,96707.78
2023-04-16T13:23:12.416Z,96709.81
2023-04-16T13:25:38.793Z,96700.88
2023-04-16T13:28:05.841Z,96701.50
2023-04-16T13:30:33.359Z,96705.16
2023-04-16T13:33:00.052Z,96701.50
2023-04-16T13:35:27.236Z,96712.19
2023-04-16T13:37:53.980Z,96705.38
2023-04-16T13:40:20.361Z,96705.47
2023-04-16T13:42:46.806Z,96709.13
2023-04-16T13:45:13.105Z,96712.38
2023-04-16T13:47:43.115Z,96707.63
2023-04-16T13:50:10.038Z,96713.41
2023-04-16T13:52:36.517Z,96709.13
2023-04-16T13:55:03.227Z,96708.94
2023-04-16T13:57:29.781Z,96712.56
2023-04-16T13:59:56.217Z,96700.03
2023-04-16T14:02:23.488Z,96696.81
2023-04-16T14:04:49.858Z,96704.69
2023-04-16T14:07:16.263Z,96701.84
2023-04-16T14:09:42.575Z,96704.69
2023-04-16T14:12:08.932Z,96705.59
2023-04-16T14:14:35.251Z,96705.09
2023-04-16T14:17:03.220Z,96713.41
2023-04-16T14:19:30.278Z,96710.88
2023-04-16T14:21:56.638Z,96706.50
2023-04-16T14:24:23.557Z,96706.34
2023-04-16T14:26:49.947Z,96712.41
2023-04-16T14:29:16.368Z,96708.00
2023-04-16T14:31:43.078Z,96713.97
2023-04-16T14:34:09.452Z,96713.97
2023-04-16T14:36:36.491Z,96717.19
2023-04-16T14:39:03.392Z,96719.72
2023-04-16T14:41:30.335Z,96721.66
2023-04-16T14:43:56.630Z,96716.03
2023-04-16T14:46:23.640Z,96713.22
2023-04-16T14:48:50.181Z,96714.22
2023-04-16T14:51:16.543Z,96715.41
2023-04-16T14:53:42.866Z,96716.63
2023-04-16T14:56:10.404Z,96724.25
2023-04-16T14:58:39.098Z,96717.06
2023-04-16T15:01:05.833Z,96721.72
2023-04-16T15:03:33.235Z,96717.88
2023-04-16T15:05:59.706Z,96718.25
2023-04-16T15:08:26.176Z,96706.13
2023-04-16T15:10:53.519Z,96723.75
2023-04-16T15:13:19.838Z,96726.56
2023-04-16T15:15:46.213Z,96710.88
2023-04-16T15:18:12.606Z,96712.00
2023-04-16T15:20:38.928Z,96718.94
2023-04-16T15:23:05.270Z,96715.00
2023-04-16T15:25:31.677Z,96719.28
2023-04-16T15:27:58.022Z,96722.28
2023-04-16T15:30:24.589Z,96719.84
2023-04-16T15:32:51.106Z,96723.09
2023-04-16T15:35:17.613Z,96722.97
2023-04-16T15:37:43.956Z,96725.31
2023-04-16T15:40:10.843Z,96731.09
2023-04-16T15:42:37.264Z,96725.50
2023-04-16T15:45:03.714Z,96733.47
2023-04-16T15:47:30.364Z,96734.63
2023-04-16T15:49:56.675Z,96725.84
2023-04-16T15:52:23.880Z,96736.75
2023-04-16T15:54:50.260Z,96733.91
2023-04-16T15:57:16.674Z,96737.56
2023-04-16T15:59:50.126Z,96733.81
2023-04-16T16:02:26.252Z,96737.66
2023-04-16T16:04:53.725Z,96736.69
2023-04-16T16:07:20.525Z,96744.84
2023-04-16T16:09:48.081Z,96736.78
2023-04-16T16:12:15.238Z,96745.88
2023-04-16T16:14:43.257Z,96739.69
2023-04-16T16:17:09.616Z,96735.84
2023-04-16T16:19:36.291Z,96741.91
2023-04-16T16:22:03.255Z,96743.84
2023-04-16T16:24:29.561Z,96746.72
2023-04-16T16:26:56.768Z,96740.25
2023-04-16T16:29:25.362Z,96747.84
2023-04-16T16:31:52.586Z,96743.31
2023-04-16T16:34:21.274Z,96753.22
2023-04-16T16:36:49.109Z,96746.34
2023-04-16T16:39:15.618Z,96758.34
2023-04-16T16:41:42.110Z,96758.25
2023-04-16T16:44:08.829Z,96755.91
2023-04-16T16:46:35.201Z,96759.03
2023-04-16T16:49:01.643Z,96752.69
2023-04-16T16:51:30.380Z,96747.94
2023-04-16T16:53:56.859Z,96755.72
2023-04-16T16:56:23.835Z,96762.28
2023-04-16T16:58:50.162Z,96756.00
2023-04-16T17:01:16.645Z,96758.72
2023-04-16T17:03:43.629Z,96762.84
2023-04-16T17:06:10.351Z,96765.09
2023-04-16T17:08:36.689Z,96767.91
2023-04-16T17:11:03.590Z,96768.91
2023-04-16T17:13:32.383Z,96764.97
2023-04-16T17:15:58.900Z,96771.66
2023-04-16T17:18:25.333Z,96767.50
2023-04-16T17:20:52.770Z,96767.50
2023-04-16T17:23:25.858Z,96772.66
2023-04-16T17:25:52.498Z,96772.94
2023-04-16T17:28:18.868Z,96776.25
2023-04-16T17:30:46.073Z,96769.13
2023-04-16T17:33:12.451Z,96775.47
2023-04-16T17:35:39.815Z,96777.13
2023-04-16T17:38:06.276Z,96772.56
2023-04-16T17:40:32.552Z,96778.75
2023-04-16T17:42:59.079Z,96777.22
2023-04-16T17:45:25.506Z,96779.41
2023-04-16T17:47:52.518Z,96782.16
2023-04-16T17:50:18.916Z,96774.59
2023-04-16T17:52:47.190Z,96775.78
2023-04-16T17:55:13.565Z,96791.13
2023-04-16T17:57:39.911Z,96786.66
2023-04-16T18:00:09.750Z,96779.63
2023-04-16T18:02:36.205Z,96791.56
2023-04-16T18:05:02.625Z,96803.09
2023-04-16T18:07:28.934Z,96795.59
2023-04-16T18:09:55.686Z,96791.34
2023-04-16T18:12:23.047Z,96794.06
2023-04-16T18:14:49.973Z,96794.06
2023-04-16T18:17:17.783Z,96795.25
2023-04-16T18:19:44.778Z,96802.47
2023-04-16T18:22:13.260Z,96804.03
2023-04-16T18:24:39.591Z,96804.34
2023-04-16T18:27:07.162Z,96811.91
2023-04-16T18:29:34.115Z,96811.56
2023-04-16T18:32:03.762Z,96804.00
2023-04-16T18:34:31.386Z,96806.19
2023-04-16T18:36:57.835Z,96809.94
2023-04-16T18:39:24.408Z,96816.69
2023-04-16T18:41:50.786Z,96820.91
2023-04-16T18:44:17.656Z,96811.66
2023-04-16T18:46:44.338Z,96813.16
2023-04-16T18:49:10.953Z,96818.31
2023-04-16T18:51:37.763Z,96826.69
2023-04-16T18:54:04.174Z,96824.94
2023-04-16T18:56:31.120Z,96819.31
2023-04-16T18:58:57.472Z,96817.13
2023-04-16T19:01:23.921Z,96826.84
2023-04-16T19:03:50.507Z,96824.59
2023-04-16T19:06:16.932Z,96831.44
2023-04-16T19:08:43.342Z,96834.69
2023-04-16T19:11:09.637Z,96830.66
2023-04-16T19:13:36.552Z,96834.88
2023-04-16T19:16:04.921Z,96831.22
2023-04-16T19:18:31.410Z,96833.03
2023-04-16T19:21:00.954Z,96833.94
2023-04-16T19:23:27.963Z,96842.31
2023-04-16T19:25:56.221Z,96839.25
2023-04-16T19:28:23.734Z,96837.72
2023-04-16T19:30:50.492Z,96838.47
2023-04-16T19:33:16.827Z,96837.72
2023-04-16T19:35:43.293Z,96838.97
2023-04-16T19:38:10.959Z,96835.63
2023-04-16T19:40:37.804Z,96839.75
2023-04-16T19:43:04.275Z,96842.38
2023-04-16T19:45:30.757Z,96833.00
2023-04-16T19:47:57.143Z,96844.69
2023-04-16T19:50:23.951Z,96842.56
2023-04-16T19:52:50.266Z,96842.75
2023-04-16T19:55:16.624Z,96847.97
2023-04-16T19:57:42.938Z,96839.31
2023-04-16T20:00:11.398Z,96842.56
2023-04-16T20:02:37.931Z,96841.50
2023-04-16T20:05:04.532Z,96838.09
2023-04-16T20:07:30.849Z,96829.78
2023-04-16T20:09:57.176Z,96836.84
2023-04-16T20:12:23.615Z,96838.44
2023-04-16T20:14:50.215Z,96835.00
2023-04-16T20:17:20.052Z,96834.13
2023-04-16T20:19:49.601Z,96834.41
2023-04-16T20:22:18.169Z,96832.31
2023-04-16T20:24:47.796Z,96828.09
2023-04-16T20:27:15.066Z,96828.09
2023-04-16T20:29:41.777Z,96833.13
2023-04-16T20:32:08.487Z,96821.75
2023-04-16T20:34:34.959Z,96827.44
2023-04-16T20:37:01.294Z,96827.63
2023-04-16T20:39:27.672Z,96830.88
2023-04-16T20:41:57.060Z,96827.53
2023-04-16T20:44:26.300Z,96823.84
2023-04-16T20:46:55.966Z,96833.16
2023-04-16T20:49:22.675Z,96826.75
2023-04-16T20:51:49.175Z,96833.78
2023-04-16T20:54:16.462Z,96826.22
2023-04-16T20:56:43.297Z,96824.94
2023-04-16T20:59:10.262Z,96819.88
2023-04-16T21:01:37.036Z,96817.47
2023-04-16T21:04:03.648Z,96810.09
2023-04-16T21:06:32.882Z,96811.81
2023-04-16T21:09:06.005Z,96816.66
2023-04-16T21:11:34.326Z,96815.66
2023-04-16T21:14:01.145Z,96812.31
2023-04-16T21:16:27.539Z,96813.31
2023-04-16T21:18:54.086Z,96815.28
2023-04-16T21:21:20.471Z,96820.31
2023-04-16T21:23:47.158Z,96823.50
2023-04-16T21:26:13.497Z,96820.16
2023-04-16T21:28:39.805Z,96813.75
2023-04-16T21:31:06.768Z,96812.41
2023-04-16T21:33:33.163Z,96815.00
2023-04-16T21:35:59.475Z,96806.63
2023-04-16T21:38:25.966Z,96807.59
2023-04-16T21:40:55.726Z,96797.69
2023-04-16T21:43:25.300Z,96798.28
2023-04-16T21:45:54.809Z,96803.25
2023-04-16T21:48:22.830Z,96805.41
2023-04-16T21:51:06.420Z,96809.44
2023-04-16T21:53:33.474Z,96802.16
2023-04-16T21:56:00.277Z,96801.97
2023-04-16T21:58:26.749Z,96802.78
2023-04-16T22:00:54.121Z,96794.84
2023-04-16T22:03:26.224Z,96793.56
2023-04-16T22:06:02.378Z,96794.19
2023-04-16T22:08:29.013Z,96789.13
2023-04-16T22:10:59.276Z,96797.19
2023-04-16T22:13:26.337Z,96795.38
2023-04-16T22:15:56.035Z,96789.31
2023-04-16T22:18:25.313Z,96785.66
2023-04-16T22:20:54.708Z,96782.56
2023-04-16T22:23:21.973Z,96790.53
2023-04-16T22:25:50.467Z,96784.66
2023-04-16T22:28:17.581Z,96786.25
2023-04-16T22:30:43.965Z,96778.44
2023-04-16T22:33:10.412Z,96780.66
2023-04-16T22:35:36.778Z,96772.22
2023-04-16T22:38:03.183Z,96779.78
2023-04-16T22:40:32.619Z,96774.34
2023-04-16T22:42:59.085Z,96780.28
2023-04-16T22:45:26.062Z,96777.28
2023-04-16T22:47:52.582Z,96780.56
2023-04-16T22:50:19.419Z,96780.56
2023-04-16T22:52:45.818Z,96781.47
2023-04-16T22:55:12.111Z,96770.47
2023-04-16T22:57:38.544Z,96778.47
2023-04-16T23:00:12.660Z,96785.66
2023-04-16T23:02:39.133Z,96777.09
2023-04-16T23:05:05.741Z,96779.63
2023-04-16T23:07:32.159Z,96773.25
2023-04-16T23:09:58.538Z,96775.94
2023-04-16T23:12:24.887Z,96775.34
2023-04-16T23:14:52.700Z,96773.44
2023-04-16T23:17:20.619Z,96776.34
2023-04-16T23:19:46.945Z,96767.75
2023-04-16T23:22:13.212Z,96771.88
2023-04-16T23:24:39.571Z,96769.44
2023-04-16T23:27:06.003Z,96761.63
2023-04-16T23:29:32.296Z,96768.78
2023-04-16T23:31:58.692Z,96766.91
2023-04-16T23:34:25.470Z,96771.22
2023-04-16T23:36:54.150Z,96764.13
2023-04-16T23:39:20.643Z,96765.56
2023-04-16T23:41:47.031Z,96764.56
2023-04-16T23:44:13.384Z,96764.81
2023-04-16T23:46:40.908Z,96761.91
2023-04-16T23:49:07.573Z,96763.81
2023-04-16T23:51:33.956Z,96759.38
2023-04-16T23:54:00.384Z,96764.81
2023-04-16T23:56:27.406Z,96760.69
2023-04-16T23:58:53.795Z,96754.66
